createdAt,value
2018-09-06T00:00:44.322Z,7.90
2018-09-06T00:04:48.012Z,8.43
2018-09-06T00:08:51.689Z,8.07
2018-09-06T00:12:55.341Z,6.70
2018-09-06T00:16:58.964Z,8.23
2018-09-06T00:21:02.613Z,8.17
2018-09-06T00:25:06.401Z,7.30
2018-09-06T00:29:10.081Z,7.37
2018-09-06T00:33:13.737Z,11.77
2018-09-06T00:37:17.344Z,9.70
2018-09-06T00:41:21.060Z,9.77
2018-09-06T00:45:24.740Z,7.57
2018-09-06T00:49:28.472Z,9.87
2018-09-06T00:53:32.179Z,9.13
2018-09-06T00:57:35.958Z,9.10
2018-09-06T01:01:39.619Z,11.30
2018-09-06T01:05:43.327Z,6.87
2018-09-06T01:09:46.968Z,8.60
2018-09-06T01:13:50.679Z,9.80
2018-09-06T01:17:54.277Z,8.03
2018-09-06T01:21:57.988Z,10.73
2018-09-06T01:26:01.711Z,8.27
2018-09-06T01:30:05.640Z,9.57
2018-09-06T01:34:09.291Z,13.37
2018-09-06T01:38:12.998Z,9.27
2018-09-06T01:42:16.657Z,9.07
2018-09-06T01:46:20.299Z,9.87
2018-09-06T01:50:23.964Z,11.27
2018-09-06T01:54:27.676Z,8.80
2018-09-06T01:58:31.295Z,8.57
2018-09-06T02:02:34.954Z,13.20
2018-09-06T02:06:38.715Z,11.17
2018-09-06T02:10:42.408Z,10.87
2018-09-06T02:14:46.134Z,12.20
2018-09-06T02:18:49.913Z,8.97
2018-09-06T02:22:53.781Z,12.90
2018-09-06T02:26:57.437Z,11.50
2018-09-06T02:31:01.212Z,10.57
2018-09-06T02:35:04.903Z,12.10
2018-09-06T02:39:09.713Z,13.70
2018-09-06T02:43:14.040Z,11.23
2018-09-06T02:47:17.697Z,14.03
2018-09-06T02:51:21.875Z,11.20
2018-09-06T02:55:27.081Z,14.77
2018-09-06T02:59:30.757Z,16.63
2018-09-06T03:03:34.414Z,11.57
2018-09-06T03:07:38.110Z,12.43
2018-09-06T03:11:47.133Z,13.33
2018-09-06T03:15:50.854Z,12.37
2018-09-06T03:19:54.530Z,14.53
2018-09-06T03:23:58.240Z,14.53
2018-09-06T03:28:02.603Z,12.83
2018-09-06T03:32:06.384Z,14.00
2018-09-06T03:36:10.075Z,14.73
2018-09-06T03:40:13.725Z,14.00
2018-09-06T03:44:17.465Z,11.83
2018-09-06T03:48:21.136Z,13.00
2018-09-06T03:52:24.804Z,15.40
2018-09-06T03:56:28.459Z,12.83
2018-09-06T04:00:32.107Z,11.73
2018-09-06T04:04:35.813Z,17.53
2018-09-06T04:08:39.594Z,15.77
2018-09-06T04:12:43.253Z,18.40
2018-09-06T04:16:46.883Z,13.63
2018-09-06T04:20:50.561Z,13.07
2018-09-06T04:24:54.212Z,13.07
2018-09-06T04:28:57.952Z,14.77
2018-09-06T04:33:01.637Z,12.67
2018-09-06T04:37:05.299Z,17.80
2018-09-06T04:41:09.051Z,13.27
2018-09-06T04:45:12.721Z,14.37
2018-09-06T04:49:16.525Z,14.10
2018-09-06T04:53:20.168Z,16.30
2018-09-06T04:57:23.862Z,11.30
2018-09-06T05:01:27.575Z,14.23
2018-09-06T05:05:31.220Z,11.40
2018-09-06T05:09:34.876Z,14.53
2018-09-06T05:13:38.528Z,15.37
2018-09-06T05:17:42.163Z,15.60
2018-09-06T05:21:45.809Z,20.57
2018-09-06T05:25:49.467Z,19.07
2018-09-06T05:29:53.145Z,15.67
2018-09-06T05:33:56.828Z,17.73
2018-09-06T05:38:00.453Z,12.90
2018-09-06T05:42:04.176Z,11.47
2018-09-06T05:46:08.495Z,15.07
2018-09-06T05:51:15.081Z,15.00
2018-09-06T05:55:18.775Z,15.90
2018-09-06T05:59:22.457Z,11.77
2018-09-06T06:03:26.173Z,14.60
2018-09-06T06:07:40.809Z,13.33
2018-09-06T06:11:44.573Z,13.77
2018-09-06T06:15:48.283Z,11.20
2018-09-06T06:19:52.032Z,11.83
2018-09-06T06:23:56.560Z,13.87
2018-09-06T06:28:00.350Z,13.40
2018-09-06T06:32:04.143Z,11.43
2018-09-06T06:36:07.952Z,11.10
2018-09-06T06:40:11.721Z,13.33
2018-09-06T06:44:15.413Z,14.03
2018-09-06T06:48:19.109Z,15.60
2018-09-06T06:52:22.847Z,15.57
2018-09-06T06:56:26.533Z,14.20
2018-09-06T07:00:30.282Z,11.67
2018-09-06T07:04:34.178Z,17.03
2018-09-06T07:08:37.926Z,9.47
2018-09-06T07:12:41.620Z,12.33
2018-09-06T07:16:45.280Z,15.13
2018-09-06T07:20:48.969Z,13.23
2018-09-06T07:24:52.604Z,11.10
2018-09-06T07:28:56.318Z,10.30
2018-09-06T07:33:00.035Z,11.13
2018-09-06T07:37:03.734Z,13.27
2018-09-06T07:41:07.603Z,13.10
2018-09-06T07:45:11.263Z,19.20
2018-09-06T07:49:15.003Z,10.83
2018-09-06T07:53:18.685Z,13.73
2018-09-06T07:57:22.391Z,10.17
2018-09-06T08:01:26.123Z,9.47
2018-09-06T08:05:29.786Z,11.63
2018-09-06T08:09:33.512Z,10.13
2018-09-06T08:13:37.237Z,9.97
2018-09-06T08:17:40.948Z,7.70
2018-09-06T08:21:44.680Z,8.57
2018-09-06T08:25:48.396Z,8.73
2018-09-06T08:29:52.195Z,9.60
2018-09-06T08:33:55.934Z,7.83
2018-09-06T08:37:59.639Z,10.43
2018-09-06T08:42:03.353Z,6.90
2018-09-06T08:46:07.116Z,9.23
2018-09-06T08:50:10.808Z,9.47
2018-09-06T08:54:14.544Z,7.20
2018-09-06T08:58:18.285Z,6.33
2018-09-06T09:02:22.356Z,7.63
2018-09-06T09:06:26.144Z,7.13
2018-09-06T09:10:29.880Z,7.90
2018-09-06T09:14:33.611Z,12.80
2018-09-06T09:18:37.296Z,8.80
2018-09-06T09:22:40.989Z,8.40
2018-09-06T09:26:44.768Z,6.90
2018-09-06T09:30:48.516Z,11.60
2018-09-06T09:34:52.221Z,9.67
2018-09-06T09:38:56.038Z,9.70
2018-09-06T09:42:59.760Z,10.00
2018-09-06T09:51:06.439Z,8.17
2018-09-06T09:55:10.207Z,7.23
2018-09-06T09:59:13.990Z,8.13
2018-09-06T10:03:23.077Z,8.40
2018-09-06T10:07:32.207Z,10.10
2018-09-06T10:11:35.905Z,10.73
2018-09-06T10:15:40.243Z,10.40
2018-09-06T10:19:44.048Z,8.17
2018-09-06T10:23:47.897Z,9.67
2018-09-06T10:27:51.742Z,9.97
2018-09-06T10:31:55.437Z,7.60
2018-09-06T10:35:59.131Z,8.33
2018-09-06T10:40:03.107Z,7.47
2018-09-06T10:44:06.852Z,7.83
2018-09-06T10:48:10.556Z,8.53
2018-09-06T10:52:14.201Z,7.10
2018-09-06T10:56:17.976Z,8.27
2018-09-06T11:00:21.756Z,9.53
2018-09-06T11:04:25.580Z,11.40
2018-09-06T11:08:29.389Z,7.97
2018-09-06T11:12:33.058Z,7.63
2018-09-06T11:16:36.896Z,9.73
2018-09-06T11:20:40.594Z,8.23
2018-09-06T11:24:44.281Z,10.77
2018-09-06T11:28:48.090Z,8.80
2018-09-06T11:32:51.772Z,10.43
2018-09-06T11:36:55.566Z,6.20
2018-09-06T11:40:59.243Z,7.17
2018-09-06T11:45:03.122Z,7.40
2018-09-06T11:49:06.959Z,10.17
2018-09-06T11:53:10.753Z,7.60
2018-09-06T11:57:14.556Z,7.40
2018-09-06T12:01:18.325Z,8.07
2018-09-06T12:05:22.041Z,11.40
2018-09-06T12:09:25.814Z,7.57
2018-09-06T12:13:29.463Z,8.30
2018-09-06T12:17:33.168Z,6.73
2018-09-06T12:21:36.924Z,7.63
2018-09-06T12:25:40.709Z,10.93
2018-09-06T12:29:44.423Z,12.37
2018-09-06T12:33:48.178Z,15.73
2018-09-06T12:37:51.855Z,14.37
2018-09-06T12:41:55.628Z,12.67
2018-09-06T12:45:59.420Z,9.93
2018-09-06T12:50:03.317Z,19.13
2018-09-06T12:54:07.025Z,14.07
2018-09-06T12:58:10.750Z,15.17
2018-09-06T13:02:14.428Z,11.67
2018-09-06T13:06:18.205Z,14.07
2018-09-06T13:10:21.881Z,13.80
2018-09-06T13:14:25.587Z,14.77
2018-09-06T13:18:29.301Z,15.53
2018-09-06T13:22:32.975Z,16.67
2018-09-06T13:26:36.661Z,18.80
2018-09-06T13:30:40.364Z,17.93
2018-09-06T13:34:44.092Z,13.97
2018-09-06T13:38:47.867Z,15.83
2018-09-06T13:42:52.343Z,17.10
2018-09-06T13:46:56.064Z,17.47
2018-09-06T13:50:59.740Z,21.10
2018-09-06T13:55:03.400Z,14.33
2018-09-06T13:59:07.201Z,17.60
2018-09-06T14:03:10.887Z,17.10
2018-09-06T14:07:14.582Z,13.70
2018-09-06T14:11:18.283Z,12.93
2018-09-06T14:15:21.962Z,18.37
2018-09-06T14:19:25.671Z,20.60
2018-09-06T14:23:29.355Z,14.70
2018-09-06T14:27:33.092Z,15.10
2018-09-06T14:31:36.799Z,18.87
2018-09-06T14:35:40.457Z,16.17
2018-09-06T14:39:44.261Z,17.23
2018-09-06T14:43:48.012Z,19.50
2018-09-06T14:47:51.691Z,19.13
2018-09-06T14:51:55.391Z,16.80
2018-09-06T14:55:59.069Z,15.37
2018-09-06T15:00:02.841Z,17.17
2018-09-06T15:04:06.592Z,15.73
2018-09-06T15:08:10.400Z,18.20
2018-09-06T15:12:14.119Z,14.30
2018-09-06T15:16:17.938Z,15.47
2018-09-06T15:20:21.676Z,12.83
2018-09-06T15:24:25.359Z,14.47
2018-09-06T15:28:29.092Z,13.60
2018-09-06T15:32:32.788Z,17.30
2018-09-06T15:36:36.454Z,13.07
2018-09-06T15:40:40.148Z,14.73
2018-09-06T15:44:43.829Z,13.63
2018-09-06T15:48:47.616Z,15.73
2018-09-06T15:52:51.311Z,16.87
2018-09-06T15:56:54.954Z,16.87
2018-09-06T16:00:58.649Z,14.97
2018-09-06T16:05:02.379Z,15.30
2018-09-06T16:09:13.028Z,15.53
2018-09-06T16:13:16.725Z,17.60
2018-09-06T16:17:20.397Z,19.33
2018-09-06T16:21:24.173Z,14.10
2018-09-06T16:25:27.870Z,16.83
2018-09-06T16:29:31.647Z,17.43
2018-09-06T16:33:35.304Z,14.50
2018-09-06T16:37:45.771Z,13.57
2018-09-06T16:41:49.454Z,14.87
2018-09-06T16:45:53.116Z,13.97
2018-09-06T16:49:56.864Z,15.57
2018-09-06T16:54:00.582Z,15.80
2018-09-06T16:58:04.500Z,25.40
2018-09-06T17:02:08.449Z,14.00
2018-09-06T17:06:12.255Z,14.27
2018-09-06T17:10:16.057Z,19.10
2018-09-06T17:14:19.759Z,12.13
2018-09-06T17:18:23.465Z,15.23
2018-09-06T17:22:27.820Z,14.33
2018-09-06T17:26:31.552Z,14.33
2018-09-06T17:30:35.278Z,12.07
2018-09-06T17:34:39.276Z,12.73
2018-09-06T17:38:43.199Z,11.27
2018-09-06T17:42:47.006Z,16.47
2018-09-06T17:46:50.909Z,12.67
2018-09-06T17:50:54.780Z,13.23
2018-09-06T17:54:58.515Z,18.53
2018-09-06T17:59:02.300Z,13.23
2018-09-06T18:03:06.057Z,9.80
2018-09-06T18:07:09.856Z,7.63
2018-09-06T18:11:13.726Z,12.00
2018-09-06T18:15:17.774Z,8.43
2018-09-06T18:19:21.731Z,5.30
2018-09-06T18:23:25.927Z,7.77
2018-09-06T18:27:29.929Z,6.53
2018-09-06T18:31:33.811Z,8.60
2018-09-06T18:35:37.524Z,6.53
2018-09-06T18:39:41.214Z,7.07
2018-09-06T18:43:44.944Z,13.27
2018-09-06T18:47:48.691Z,7.17
2018-09-06T18:51:52.402Z,6.67
2018-09-06T18:55:56.149Z,6.13
2018-09-06T18:59:59.849Z,6.70
2018-09-06T19:04:03.507Z,7.90
2018-09-06T19:08:07.175Z,7.40
2018-09-06T19:12:10.868Z,6.20
2018-09-06T19:16:14.547Z,6.67
2018-09-06T19:20:18.322Z,5.57
2018-09-06T19:24:21.924Z,6.70
2018-09-06T19:28:25.713Z,6.60
2018-09-06T19:32:29.419Z,8.53
2018-09-06T19:36:33.159Z,6.93
2018-09-06T19:40:36.851Z,7.37
2018-09-06T19:44:40.491Z,5.90
2018-09-06T19:48:44.156Z,7.77
2018-09-06T19:52:47.819Z,7.30
2018-09-06T19:56:51.473Z,7.73
2018-09-06T20:00:55.128Z,7.70
2018-09-06T20:04:58.827Z,7.73
2018-09-06T20:09:02.517Z,6.83
2018-09-06T20:13:06.369Z,9.07
2018-09-06T20:17:10.056Z,6.80
2018-09-06T20:21:13.769Z,8.63
2018-09-06T20:25:17.447Z,8.33
2018-09-06T20:29:21.139Z,8.17
2018-09-06T20:33:24.820Z,6.93
2018-09-06T20:37:28.491Z,10.63
2018-09-06T20:41:32.161Z,7.43
2018-09-06T20:45:35.800Z,8.53
2018-09-06T20:49:39.527Z,11.47
2018-09-06T20:53:43.232Z,8.17
2018-09-06T20:57:46.859Z,9.03
2018-09-06T21:01:50.551Z,8.57
2018-09-06T21:05:54.289Z,8.80
2018-09-06T21:09:58.061Z,10.87
2018-09-06T21:14:01.799Z,10.27
2018-09-06T21:18:05.498Z,10.27
2018-09-06T21:22:09.188Z,10.00
2018-09-06T21:26:12.793Z,7.33
2018-09-06T21:30:16.500Z,10.33
2018-09-06T21:34:20.252Z,13.40
2018-09-06T21:38:24.020Z,11.83
2018-09-06T21:42:27.701Z,11.67
2018-09-06T21:46:31.523Z,11.83
2018-09-06T21:50:35.186Z,13.80
2018-09-06T21:54:38.842Z,22.47
2018-09-06T21:58:42.546Z,22.37
2018-09-06T22:02:51.563Z,17.33
2018-09-06T22:06:55.241Z,19.57
2018-09-06T22:10:58.912Z,20.73
2018-09-06T22:15:02.668Z,32.33
2018-09-06T22:19:06.621Z,33.27
2018-09-06T22:23:10.339Z,34.57
2018-09-06T22:27:14.095Z,38.33
2018-09-06T22:31:17.741Z,38.27
2018-09-06T22:35:21.401Z,41.13
2018-09-06T22:39:25.120Z,44.30
2018-09-06T22:43:28.780Z,49.33
2018-09-06T22:47:32.483Z,47.70
2018-09-06T22:51:36.095Z,48.67
2018-09-06T22:55:39.756Z,48.70
2018-09-06T22:59:43.475Z,47.67
2018-09-06T23:03:51.333Z,48.83
2018-09-06T23:07:55.036Z,52.23
2018-09-06T23:11:58.661Z,54.20
2018-09-06T23:16:02.328Z,47.03
2018-09-06T23:20:06.125Z,49.03
2018-09-06T23:24:09.795Z,48.33
2018-09-06T23:28:13.495Z,53.57
2018-09-06T23:32:23.456Z,55.40
2018-09-06T23:36:27.136Z,53.70
2018-09-06T23:40:35.012Z,59.83
2018-09-06T23:44:38.748Z,67.20
2018-09-06T23:48:42.432Z,63.13
2018-09-06T23:52:46.087Z,67.63
2018-09-06T23:56:49.759Z,73.50
